sensor_id;sensor_type;location;lat;lon;timestamp;pressure;altitude;pressure_sealevel;temperature;humidity
74921;BME280;63483;47.384;8.860;2022-12-05T00:00:46;94392.44;;;0.40;54.97
74921;BME280;63483;47.384;8.860;2022-12-05T00:03:11;94387.78;;;0.34;56.02
74921;BME280;63483;47.384;8.860;2022-12-05T00:05:40;94390.81;;;0.39;55.91
74921;BME280;63483;47.384;8.860;2022-12-05T00:08:06;94388.00;;;0.42;55.79
74921;BME280;63483;47.384;8.860;2022-12-05T00:10:35;94391.50;;;0.41;55.73
74921;BME280;63483;47.384;8.860;2022-12-05T00:13:00;94396.78;;;0.39;55.82
74921;BME280;63483;47.384;8.860;2022-12-05T00:15:25;94390.88;;;0.49;56.04
74921;BME280;63483;47.384;8.860;2022-12-05T00:17:51;94395.09;;;0.50;55.92
74921;BME280;63483;47.384;8.860;2022-12-05T00:20:16;94413.69;;;0.53;56.14
74921;BME280;63483;47.384;8.860;2022-12-05T00:22:41;94418.63;;;0.56;55.75
74921;BME280;63483;47.384;8.860;2022-12-05T00:25:08;94429.88;;;0.55;55.68
74921;BME280;63483;47.384;8.860;2022-12-05T00:27:33;94437.63;;;0.55;55.75
74921;BME280;63483;47.384;8.860;2022-12-05T00:29:59;94430.13;;;0.52;55.93
74921;BME280;63483;47.384;8.860;2022-12-05T00:32:24;94426.16;;;0.48;55.77
74921;BME280;63483;47.384;8.860;2022-12-05T00:34:50;94426.41;;;0.45;55.41
74921;BME280;63483;47.384;8.860;2022-12-05T00:37:15;94434.56;;;0.50;55.74
74921;BME280;63483;47.384;8.860;2022-12-05T00:39:41;94441.63;;;0.48;55.42
74921;BME280;63483;47.384;8.860;2022-12-05T00:42:06;94443.75;;;0.43;55.65
74921;BME280;63483;47.384;8.860;2022-12-05T00:44:31;94456.84;;;0.51;55.56
74921;BME280;63483;47.384;8.860;2022-12-05T00:46:57;94456.06;;;0.39;56.35
74921;BME280;63483;47.384;8.860;2022-12-05T00:49:22;94460.75;;;0.34;56.07
74921;BME280;63483;47.384;8.860;2022-12-05T00:51:47;94472.44;;;0.38;56.52
74921;BME280;63483;47.384;8.860;2022-12-05T00:54:14;94466.47;;;0.38;56.53
74921;BME280;63483;47.384;8.860;2022-12-05T00:56:40;94461.56;;;0.35;56.34
74921;BME280;63483;47.384;8.860;2022-12-05T00:59:06;94456.41;;;0.35;56.46
74921;BME280;63483;47.384;8.860;2022-12-05T01:01:38;94455.00;;;0.42;56.29
74921;BME280;63483;47.384;8.860;2022-12-05T01:04:11;94457.09;;;0.48;56.10
74921;BME280;63483;47.384;8.860;2022-12-05T01:06:36;94456.59;;;0.54;56.15
74921;BME280;63483;47.384;8.860;2022-12-05T01:09:03;94460.44;;;0.60;56.19
74921;BME280;63483;47.384;8.860;2022-12-05T01:11:29;94454.47;;;0.60;55.67
74921;BME280;63483;47.384;8.860;2022-12-05T01:13:55;94456.94;;;0.61;55.99
74921;BME280;63483;47.384;8.860;2022-12-05T01:16:26;94449.19;;;0.61;56.04
74921;BME280;63483;47.384;8.860;2022-12-05T01:18:53;94456.09;;;0.61;55.51
74921;BME280;63483;47.384;8.860;2022-12-05T01:21:19;94464.03;;;0.69;56.08
74921;BME280;63483;47.384;8.860;2022-12-05T01:23:45;94473.16;;;0.73;55.12
74921;BME280;63483;47.384;8.860;2022-12-05T01:26:12;94473.41;;;0.70;56.11
74921;BME280;63483;47.384;8.860;2022-12-05T01:28:39;94467.56;;;0.68;56.11
74921;BME280;63483;47.384;8.860;2022-12-05T01:31:06;94481.47;;;0.77;56.08
74921;BME280;63483;47.384;8.860;2022-12-05T01:33:32;94474.06;;;0.83;55.82
74921;BME280;63483;47.384;8.860;2022-12-05T01:35:58;94470.09;;;0.79;56.29
74921;BME280;63483;47.384;8.860;2022-12-05T01:38:23;94466.00;;;0.77;55.72
74921;BME280;63483;47.384;8.860;2022-12-05T01:40:49;94480.97;;;0.83;55.90
74921;BME280;63483;47.384;8.860;2022-12-05T01:43:17;94479.91;;;0.85;55.80
74921;BME280;63483;47.384;8.860;2022-12-05T01:45:44;94485.63;;;0.89;55.96
74921;BME280;63483;47.384;8.860;2022-12-05T01:48:15;94487.84;;;0.94;55.66
74921;BME280;63483;47.384;8.860;2022-12-05T01:50:41;94485.72;;;0.99;55.80
74921;BME280;63483;47.384;8.860;2022-12-05T01:53:07;94493.56;;;0.97;55.76
74921;BME280;63483;47.384;8.860;2022-12-05T01:55:34;94488.75;;;1.04;55.02
74921;BME280;63483;47.384;8.860;2022-12-05T01:58:01;94479.09;;;1.06;54.96
74921;BME280;63483;47.384;8.860;2022-12-05T02:00:27;94488.97;;;1.01;55.33
74921;BME280;63483;47.384;8.860;2022-12-05T02:02:57;94495.25;;;1.08;55.17
74921;BME280;63483;47.384;8.860;2022-12-05T02:05:35;94493.16;;;1.13;55.20
74921;BME280;63483;47.384;8.860;2022-12-05T02:08:06;94493.28;;;1.12;54.69
74921;BME280;63483;47.384;8.860;2022-12-05T02:10:41;94487.03;;;1.14;55.26
74921;BME280;63483;47.384;8.860;2022-12-05T02:19:46;94469.94;;;1.13;54.87
74921;BME280;63483;47.384;8.860;2022-12-05T02:22:38;94461.47;;;1.11;55.00
74921;BME280;63483;47.384;8.860;2022-12-05T02:28:24;94467.59;;;1.10;55.06
74921;BME280;63483;47.384;8.860;2022-12-05T02:31:03;94467.03;;;1.06;55.29
74921;BME280;63483;47.384;8.860;2022-12-05T02:33:34;94464.06;;;1.11;54.79
74921;BME280;63483;47.384;8.860;2022-12-05T02:38:40;94464.00;;;1.22;55.19
74921;BME280;63483;47.384;8.860;2022-12-05T02:41:15;94473.25;;;1.25;55.12
74921;BME280;63483;47.384;8.860;2022-12-05T02:44:13;94473.44;;;1.33;55.14
74921;BME280;63483;47.384;8.860;2022-12-05T02:46:41;94466.53;;;1.34;54.74
74921;BME280;63483;47.384;8.860;2022-12-05T02:49:15;94463.69;;;1.37;55.50
74921;BME280;63483;47.384;8.860;2022-12-05T02:51:48;94469.66;;;0.30;52.24
74921;BME280;63483;47.384;8.860;2022-12-05T02:54:18;94463.97;;;-0.64;51.35
74921;BME280;63483;47.384;8.860;2022-12-05T02:56:46;94467.53;;;-1.36;51.23
74921;BME280;63483;47.384;8.860;2022-12-05T02:59:12;94474.09;;;-1.80;52.99
74921;BME280;63483;47.384;8.860;2022-12-05T03:01:38;94468.88;;;-1.92;53.84
74921;BME280;63483;47.384;8.860;2022-12-05T03:04:05;94467.59;;;-1.73;65.10
74921;BME280;63483;47.384;8.860;2022-12-05T03:06:35;94475.16;;;-1.23;62.17
74921;BME280;63483;47.384;8.860;2022-12-05T03:09:11;94472.09;;;-2.01;55.83
74921;BME280;63483;47.384;8.860;2022-12-05T03:11:45;94482.22;;;-2.36;56.08
74921;BME280;63483;47.384;8.860;2022-12-05T03:14:20;94479.47;;;-2.72;55.43
74921;BME280;63483;47.384;8.860;2022-12-05T03:16:53;94481.78;;;-2.95;56.42
74921;BME280;63483;47.384;8.860;2022-12-05T03:19:26;94492.47;;;-3.14;55.56
74921;BME280;63483;47.384;8.860;2022-12-05T03:24:23;94486.59;;;-3.28;55.28
74921;BME280;63483;47.384;8.860;2022-12-05T03:27:06;94490.81;;;-2.89;56.18
74921;BME280;63483;47.384;8.860;2022-12-05T03:35:02;94481.41;;;-2.63;52.22
74921;BME280;63483;47.384;8.860;2022-12-05T03:37:39;94486.50;;;-2.37;53.38
74921;BME280;63483;47.384;8.860;2022-12-05T03:40:17;94490.19;;;-2.15;53.53
74921;BME280;63483;47.384;8.860;2022-12-05T03:42:54;94486.56;;;-2.00;54.08
74921;BME280;63483;47.384;8.860;2022-12-05T03:45:52;94480.00;;;-1.67;54.58
74921;BME280;63483;47.384;8.860;2022-12-05T03:48:33;94471.97;;;-1.62;52.87
74921;BME280;63483;47.384;8.860;2022-12-05T03:51:03;94478.22;;;-1.42;51.16
74921;BME280;63483;47.384;8.860;2022-12-05T03:53:43;94476.47;;;-1.17;53.73
74921;BME280;63483;47.384;8.860;2022-12-05T03:56:17;94476.13;;;-0.89;56.57
74921;BME280;63483;47.384;8.860;2022-12-05T04:01:28;94499.94;;;-0.40;57.43
74921;BME280;63483;47.384;8.860;2022-12-05T04:04:03;94495.94;;;-0.21;57.57
74921;BME280;63483;47.384;8.860;2022-12-05T04:06:34;94502.16;;;-0.01;57.52
74921;BME280;63483;47.384;8.860;2022-12-05T04:09:04;94499.31;;;0.13;56.96
74921;BME280;63483;47.384;8.860;2022-12-05T04:11:35;94503.53;;;0.26;56.92
74921;BME280;63483;47.384;8.860;2022-12-05T04:14:10;94506.78;;;0.39;57.43
74921;BME280;63483;47.384;8.860;2022-12-05T04:16:42;94513.78;;;0.48;56.93
74921;BME280;63483;47.384;8.860;2022-12-05T04:19:41;94503.56;;;0.58;57.31
74921;BME280;63483;47.384;8.860;2022-12-05T04:22:28;94504.59;;;0.67;57.29
74921;BME280;63483;47.384;8.860;2022-12-05T04:24:56;94511.00;;;0.72;56.66
74921;BME280;63483;47.384;8.860;2022-12-05T04:27:50;94502.69;;;0.80;56.40
74921;BME280;63483;47.384;8.860;2022-12-05T04:30:21;94510.84;;;0.85;56.27
74921;BME280;63483;47.384;8.860;2022-12-05T04:33:01;94519.84;;;0.91;56.33
74921;BME280;63483;47.384;8.860;2022-12-05T04:35:36;94515.25;;;0.95;56.49
74921;BME280;63483;47.384;8.860;2022-12-05T04:38:18;94523.47;;;1.00;56.93
74921;BME280;63483;47.384;8.860;2022-12-05T04:41:15;94526.47;;;1.05;56.32
74921;BME280;63483;47.384;8.860;2022-12-05T04:43:44;94522.72;;;1.09;56.34
74921;BME280;63483;47.384;8.860;2022-12-05T04:46:12;94526.81;;;1.12;56.33
74921;BME280;63483;47.384;8.860;2022-12-05T04:48:40;94541.09;;;1.16;56.08
74921;BME280;63483;47.384;8.860;2022-12-05T04:51:07;94552.91;;;1.18;56.34
74921;BME280;63483;47.384;8.860;2022-12-05T04:53:34;94544.00;;;1.22;56.28
74921;BME280;63483;47.384;8.860;2022-12-05T04:56:01;94548.22;;;1.23;56.56
74921;BME280;63483;47.384;8.860;2022-12-05T04:58:29;94545.63;;;1.23;55.80
74921;BME280;63483;47.384;8.860;2022-12-05T05:01:01;94542.69;;;1.28;56.46
74921;BME280;63483;47.384;8.860;2022-12-05T05:06:02;94551.69;;;1.34;56.16
74921;BME280;63483;47.384;8.860;2022-12-05T05:08:29;94554.69;;;1.39;55.85
74921;BME280;63483;47.384;8.860;2022-12-05T05:11:16;94563.16;;;1.41;56.34
74921;BME280;63483;47.384;8.860;2022-12-05T05:13:42;94565.59;;;1.42;55.83
74921;BME280;63483;47.384;8.860;2022-12-05T05:16:16;94558.44;;;1.46;56.05
74921;BME280;63483;47.384;8.860;2022-12-05T05:18:45;94562.66;;;1.47;56.06
74921;BME280;63483;47.384;8.860;2022-12-05T05:23:51;94564.06;;;1.51;56.17
74921;BME280;63483;47.384;8.860;2022-12-05T05:26:17;94568.97;;;1.54;55.71
74921;BME280;63483;47.384;8.860;2022-12-05T05:28:44;94572.22;;;1.56;55.65
74921;BME280;63483;47.384;8.860;2022-12-05T05:31:09;94573.88;;;1.57;55.84
74921;BME280;63483;47.384;8.860;2022-12-05T05:33:35;94579.72;;;1.59;56.07
74921;BME280;63483;47.384;8.860;2022-12-05T05:36:06;94572.78;;;1.60;55.72
74921;BME280;63483;47.384;8.860;2022-12-05T05:38:36;94585.47;;;1.63;55.83
74921;BME280;63483;47.384;8.860;2022-12-05T05:41:02;94595.69;;;1.65;55.82
74921;BME280;63483;47.384;8.860;2022-12-05T05:43:28;94603.41;;;1.65;56.01
74921;BME280;63483;47.384;8.860;2022-12-05T05:45:53;94605.75;;;1.68;55.65
74921;BME280;63483;47.384;8.860;2022-12-05T05:48:19;94602.19;;;1.69;55.93
74921;BME280;63483;47.384;8.860;2022-12-05T05:50:44;94608.06;;;1.71;55.78
74921;BME280;63483;47.384;8.860;2022-12-05T05:53:09;94613.63;;;1.66;55.45
74921;BME280;63483;47.384;8.860;2022-12-05T05:55:38;94605.16;;;1.64;55.71
74921;BME280;63483;47.384;8.860;2022-12-05T05:58:03;94611.38;;;1.61;55.78
74921;BME280;63483;47.384;8.860;2022-12-05T06:00:29;94621.50;;;1.65;55.58
74921;BME280;63483;47.384;8.860;2022-12-05T06:02:54;94614.69;;;1.64;55.22
74921;BME280;63483;47.384;8.860;2022-12-05T06:05:19;94603.22;;;1.56;55.52
74921;BME280;63483;47.384;8.860;2022-12-05T06:07:45;94601.06;;;1.61;54.90
74921;BME280;63483;47.384;8.860;2022-12-05T06:10:10;94605.16;;;1.64;55.18
74921;BME280;63483;47.384;8.860;2022-12-05T06:12:35;94609.25;;;1.67;55.78
74921;BME280;63483;47.384;8.860;2022-12-05T06:15:01;94610.66;;;1.71;55.71
74921;BME280;63483;47.384;8.860;2022-12-05T06:17:26;94610.66;;;1.71;55.34
74921;BME280;63483;47.384;8.860;2022-12-05T06:19:51;94620.72;;;1.74;55.91
74921;BME280;63483;47.384;8.860;2022-12-05T06:22:17;94625.66;;;1.77;55.35
74921;BME280;63483;47.384;8.860;2022-12-05T06:24:42;94618.69;;;1.77;55.38
74921;BME280;63483;47.384;8.860;2022-12-05T06:27:07;94616.00;;;1.79;55.09
74921;BME280;63483;47.384;8.860;2022-12-05T06:29:33;94618.56;;;1.79;56.01
74921;BME280;63483;47.384;8.860;2022-12-05T06:32:00;94615.31;;;1.77;55.47
74921;BME280;63483;47.384;8.860;2022-12-05T06:34:25;94625.66;;;1.77;56.01
74921;BME280;63483;47.384;8.860;2022-12-05T06:36:50;94634.31;;;1.76;55.33
74921;BME280;63483;47.384;8.860;2022-12-05T06:39:16;94637.63;;;1.78;55.58
74921;BME280;63483;47.384;8.860;2022-12-05T06:41:41;94639.25;;;1.79;55.06
74921;BME280;63483;47.384;8.860;2022-12-05T06:44:08;94637.78;;;1.65;55.28
74921;BME280;63483;47.384;8.860;2022-12-05T06:46:33;94645.66;;;1.64;54.89
74921;BME280;63483;47.384;8.860;2022-12-05T06:48:59;94634.63;;;1.61;55.20
74921;BME280;63483;47.384;8.860;2022-12-05T06:51:24;94632.03;;;1.61;54.54
74921;BME280;63483;47.384;8.860;2022-12-05T06:53:50;94633.06;;;1.49;54.96
74921;BME280;63483;47.384;8.860;2022-12-05T06:56:17;94628.72;;;0.95;50.21
74921;BME280;63483;47.384;8.860;2022-12-05T06:58:45;94617.56;;;0.39;48.53
74921;BME280;63483;47.384;8.860;2022-12-05T07:01:17;94622.03;;;0.26;49.84
74921;BME280;63483;47.384;8.860;2022-12-05T07:04:03;94626.78;;;-0.04;48.84
74921;BME280;63483;47.384;8.860;2022-12-05T07:06:29;94631.44;;;-0.20;50.94
74921;BME280;63483;47.384;8.860;2022-12-05T07:08:54;94641.09;;;0.12;53.69
74921;BME280;63483;47.384;8.860;2022-12-05T07:11:20;94641.28;;;-0.85;58.34
74921;BME280;63483;47.384;8.860;2022-12-05T07:13:45;94633.28;;;-0.93;56.12
74921;BME280;63483;47.384;8.860;2022-12-05T07:16:10;94637.66;;;-1.57;53.72
74921;BME280;63483;47.384;8.860;2022-12-05T07:18:36;94631.22;;;-2.14;53.55
74921;BME280;63483;47.384;8.860;2022-12-05T07:21:04;94632.84;;;-2.26;55.67
74921;BME280;63483;47.384;8.860;2022-12-05T07:23:30;94648.03;;;-2.48;54.87
74921;BME280;63483;47.384;8.860;2022-12-05T07:25:55;94656.41;;;-2.59;54.98
74921;BME280;63483;47.384;8.860;2022-12-05T07:28:22;94655.72;;;-2.75;55.18
74921;BME280;63483;47.384;8.860;2022-12-05T07:30:47;94668.09;;;-2.68;55.86
74921;BME280;63483;47.384;8.860;2022-12-05T07:33:13;94675.28;;;-2.60;54.64
74921;BME280;63483;47.384;8.860;2022-12-05T07:35:38;94673.22;;;-2.55;55.56
74921;BME280;63483;47.384;8.860;2022-12-05T07:38:03;94662.84;;;-2.26;53.53
74921;BME280;63483;47.384;8.860;2022-12-05T07:40:29;94669.22;;;-2.06;52.22
74921;BME280;63483;47.384;8.860;2022-12-05T07:42:54;94668.22;;;-1.91;56.52
74921;BME280;63483;47.384;8.860;2022-12-05T07:45:20;94655.34;;;-1.78;50.48
74921;BME280;63483;47.384;8.860;2022-12-05T07:47:46;94663.28;;;-1.94;49.63
74921;BME280;63483;47.384;8.860;2022-12-05T07:50:12;94660.16;;;-1.60;54.22
74921;BME280;63483;47.384;8.860;2022-12-05T07:52:38;94661.59;;;-1.43;50.20
74921;BME280;63483;47.384;8.860;2022-12-05T07:55:03;94664.44;;;-1.35;48.71
74921;BME280;63483;47.384;8.860;2022-12-05T07:57:29;94674.88;;;-1.12;52.27
74921;BME280;63483;47.384;8.860;2022-12-05T07:59:55;94682.75;;;-0.90;54.27
74921;BME280;63483;47.384;8.860;2022-12-05T08:02:20;94693.88;;;-0.65;54.69
74921;BME280;63483;47.384;8.860;2022-12-05T08:04:45;94697.69;;;-0.46;57.12
74921;BME280;63483;47.384;8.860;2022-12-05T08:07:11;94694.25;;;-1.45;59.90
74921;BME280;63483;47.384;8.860;2022-12-05T08:09:36;94705.34;;;-2.09;56.36
74921;BME280;63483;47.384;8.860;2022-12-05T08:12:02;94704.84;;;-2.54;55.64
74921;BME280;63483;47.384;8.860;2022-12-05T08:14:27;94699.22;;;-2.74;56.83
74921;BME280;63483;47.384;8.860;2022-12-05T08:16:52;94704.44;;;-3.03;55.59
74921;BME280;63483;47.384;8.860;2022-12-05T08:19:18;94698.06;;;-3.24;56.78
74921;BME280;63483;47.384;8.860;2022-12-05T08:21:43;94694.22;;;-3.32;56.71
74921;BME280;63483;47.384;8.860;2022-12-05T08:24:09;94699.09;;;-3.41;56.88
74921;BME280;63483;47.384;8.860;2022-12-05T08:26:35;94697.63;;;-3.45;57.27
74921;BME280;63483;47.384;8.860;2022-12-05T08:29:21;94704.47;;;-3.32;57.14
74921;BME280;63483;47.384;8.860;2022-12-05T08:31:48;94711.81;;;-2.56;57.71
74921;BME280;63483;47.384;8.860;2022-12-05T08:34:14;94713.19;;;-2.78;54.61
74921;BME280;63483;47.384;8.860;2022-12-05T08:36:41;94715.66;;;-2.76;53.84
74921;BME280;63483;47.384;8.860;2022-12-05T08:39:09;94707.88;;;-2.35;54.20
74921;BME280;63483;47.384;8.860;2022-12-05T08:41:36;94696.53;;;-2.05;56.86
74921;BME280;63483;47.384;8.860;2022-12-05T08:44:03;94694.38;;;-1.85;52.51
74921;BME280;63483;47.384;8.860;2022-12-05T08:46:34;94695.59;;;-1.52;54.25
74921;BME280;63483;47.384;8.860;2022-12-05T08:49:05;94713.28;;;-1.48;52.21
74921;BME280;63483;47.384;8.860;2022-12-05T08:51:30;94714.38;;;-1.39;51.34
74921;BME280;63483;47.384;8.860;2022-12-05T08:53:56;94720.25;;;-1.24;52.36
74921;BME280;63483;47.384;8.860;2022-12-05T08:56:22;94718.47;;;-0.98;54.70
74921;BME280;63483;47.384;8.860;2022-12-05T08:58:47;94729.50;;;-0.72;56.77
74921;BME280;63483;47.384;8.860;2022-12-05T09:01:18;94722.84;;;-0.50;56.44
74921;BME280;63483;47.384;8.860;2022-12-05T09:03:44;94722.81;;;-0.26;57.73
74921;BME280;63483;47.384;8.860;2022-12-05T09:08:36;94742.16;;;-1.44;57.06
74921;BME280;63483;47.384;8.860;2022-12-05T09:11:10;94734.50;;;-2.10;55.16
74921;BME280;63483;47.384;8.860;2022-12-05T09:13:36;94739.09;;;-2.55;56.04
74921;BME280;63483;47.384;8.860;2022-12-05T09:16:09;94746.66;;;-2.81;56.36
74921;BME280;63483;47.384;8.860;2022-12-05T09:18:35;94743.41;;;-2.98;56.32
74921;BME280;63483;47.384;8.860;2022-12-05T09:21:14;94729.75;;;-3.25;56.60
74921;BME280;63483;47.384;8.860;2022-12-05T09:23:41;94740.91;;;-3.26;58.18
74921;BME280;63483;47.384;8.860;2022-12-05T09:26:10;94730.66;;;-3.41;56.65
74921;BME280;63483;47.384;8.860;2022-12-05T09:28:37;94733.72;;;-3.07;56.90
74921;BME280;63483;47.384;8.860;2022-12-05T09:31:05;94736.84;;;-2.60;57.77
74921;BME280;63483;47.384;8.860;2022-12-05T09:33:33;94737.44;;;-2.56;56.36
74921;BME280;63483;47.384;8.860;2022-12-05T09:36:25;94730.56;;;-2.29;55.28
74921;BME280;63483;47.384;8.860;2022-12-05T09:38:52;94722.53;;;-2.37;53.65
74921;BME280;63483;47.384;8.860;2022-12-05T09:44:11;94710.41;;;-1.82;59.78
74921;BME280;63483;47.384;8.860;2022-12-05T09:47:02;94732.50;;;-1.53;51.86
74921;BME280;63483;47.384;8.860;2022-12-05T09:49:30;94737.22;;;-1.47;51.65
74921;BME280;63483;47.384;8.860;2022-12-05T09:51:58;94731.03;;;-1.32;51.72
74921;BME280;63483;47.384;8.860;2022-12-05T09:54:24;94730.28;;;-1.08;53.52
74921;BME280;63483;47.384;8.860;2022-12-05T09:56:51;94723.75;;;-0.75;56.43
74921;BME280;63483;47.384;8.860;2022-12-05T09:59:18;94730.13;;;-0.44;57.58
74921;BME280;63483;47.384;8.860;2022-12-05T10:01:58;94736.66;;;-0.16;57.86
74921;BME280;63483;47.384;8.860;2022-12-05T10:05:02;94742.09;;;0.04;58.12
74921;BME280;63483;47.384;8.860;2022-12-05T10:07:36;94743.00;;;0.27;58.09
74921;BME280;63483;47.384;8.860;2022-12-05T10:10:37;94738.09;;;0.47;57.84
74921;BME280;63483;47.384;8.860;2022-12-05T10:15:47;94721.97;;;0.79;56.50
74921;BME280;63483;47.384;8.860;2022-12-05T10:18:39;94710.44;;;0.94;56.29
74921;BME280;63483;47.384;8.860;2022-12-05T10:21:51;94707.88;;;1.05;55.90
74921;BME280;63483;47.384;8.860;2022-12-05T10:24:54;94709.59;;;1.16;56.29
74921;BME280;63483;47.384;8.860;2022-12-05T10:27:29;94714.97;;;1.24;55.93
74921;BME280;63483;47.384;8.860;2022-12-05T10:30:02;94730.69;;;1.33;55.57
74921;BME280;63483;47.384;8.860;2022-12-05T10:32:39;94728.44;;;1.39;55.47
74921;BME280;63483;47.384;8.860;2022-12-05T10:35:24;94712.50;;;1.46;56.24
74921;BME280;63483;47.384;8.860;2022-12-05T10:37:53;94727.63;;;1.50;55.75
74921;BME280;63483;47.384;8.860;2022-12-05T10:40:20;94717.84;;;1.54;55.83
74921;BME280;63483;47.384;8.860;2022-12-05T10:42:47;94723.38;;;1.60;55.79
74921;BME280;63483;47.384;8.860;2022-12-05T10:45:17;94720.41;;;1.65;55.60
74921;BME280;63483;47.384;8.860;2022-12-05T10:47:43;94721.69;;;1.71;55.88
74921;BME280;63483;47.384;8.860;2022-12-05T10:52:49;94720.94;;;1.80;55.37
74921;BME280;63483;47.384;8.860;2022-12-05T10:55:16;94721.38;;;1.85;54.84
74921;BME280;63483;47.384;8.860;2022-12-05T10:57:48;94716.81;;;1.89;54.89
74921;BME280;63483;47.384;8.860;2022-12-05T11:00:16;94728.66;;;1.91;54.63
74921;BME280;63483;47.384;8.860;2022-12-05T11:02:46;94724.72;;;1.97;54.97
74921;BME280;63483;47.384;8.860;2022-12-05T11:05:12;94719.34;;;2.00;54.38
74921;BME280;63483;47.384;8.860;2022-12-05T11:10:28;94718.84;;;2.06;54.08
74921;BME280;63483;47.384;8.860;2022-12-05T11:12:57;94721.03;;;2.11;54.24
74921;BME280;63483;47.384;8.860;2022-12-05T11:15:25;94713.16;;;2.12;54.39
74921;BME280;63483;47.384;8.860;2022-12-05T11:17:53;94720.66;;;2.16;54.25
74921;BME280;63483;47.384;8.860;2022-12-05T11:22:46;94721.94;;;2.21;55.12
74921;BME280;63483;47.384;8.860;2022-12-05T11:27:55;94717.06;;;2.28;54.60
74921;BME280;63483;47.384;8.860;2022-12-05T11:30:23;94715.06;;;2.31;54.36
74921;BME280;63483;47.384;8.860;2022-12-05T11:32:49;94707.84;;;2.35;53.80
74921;BME280;63483;47.384;8.860;2022-12-05T11:37:59;94702.28;;;2.40;53.81
74921;BME280;63483;47.384;8.860;2022-12-05T11:46:01;94696.50;;;2.47;54.05
74921;BME280;63483;47.384;8.860;2022-12-05T11:48:49;94685.78;;;2.52;53.83
74921;BME280;63483;47.384;8.860;2022-12-05T11:57:09;94689.50;;;2.59;52.97
74921;BME280;63483;47.384;8.860;2022-12-05T12:02:37;94694.88;;;0.50;48.03
74921;BME280;63483;47.384;8.860;2022-12-05T12:16:08;94673.22;;;-1.13;53.13
74921;BME280;63483;47.384;8.860;2022-12-05T12:18:53;94677.00;;;-1.43;52.68
74921;BME280;63483;47.384;8.860;2022-12-05T12:42:24;94697.28;;;-1.14;51.81
74921;BME280;63483;47.384;8.860;2022-12-05T12:45:16;94697.84;;;-0.85;51.82
74921;BME280;63483;47.384;8.860;2022-12-05T12:48:11;94695.72;;;-0.91;48.96
74921;BME280;63483;47.384;8.860;2022-12-05T12:50:43;94702.50;;;-0.90;47.91
74921;BME280;63483;47.384;8.860;2022-12-05T13:01:41;94688.97;;;0.14;49.97
74921;BME280;63483;47.384;8.860;2022-12-05T13:04:16;94691.22;;;0.30;48.84
74921;BME280;63483;47.384;8.860;2022-12-05T13:09:26;94682.66;;;0.30;63.24
74921;BME280;63483;47.384;8.860;2022-12-05T13:11:54;94682.19;;;-0.58;53.96
74921;BME280;63483;47.384;8.860;2022-12-05T13:14:23;94684.16;;;-1.23;52.01
74921;BME280;63483;47.384;8.860;2022-12-05T13:16:53;94682.25;;;-1.58;52.85
74921;BME280;63483;47.384;8.860;2022-12-05T13:19:39;94689.97;;;-1.83;53.79
74921;BME280;63483;47.384;8.860;2022-12-05T13:22:07;94688.13;;;-2.07;53.87
74921;BME280;63483;47.384;8.860;2022-12-05T13:24:33;94683.19;;;-1.84;54.54
74921;BME280;63483;47.384;8.860;2022-12-05T13:27:01;94684.44;;;-1.77;53.95
74921;BME280;63483;47.384;8.860;2022-12-05T13:29:34;94681.75;;;-1.88;52.41
74921;BME280;63483;47.384;8.860;2022-12-05T13:32:04;94690.47;;;-1.78;54.94
74921;BME280;63483;47.384;8.860;2022-12-05T13:36:59;94689.53;;;-2.03;52.54
74921;BME280;63483;47.384;8.860;2022-12-05T13:39:53;94689.53;;;-2.03;51.81
74921;BME280;63483;47.384;8.860;2022-12-05T13:42:38;94685.16;;;-2.01;51.08
74921;BME280;63483;47.384;8.860;2022-12-05T13:45:05;94687.38;;;-2.09;51.22
74921;BME280;63483;47.384;8.860;2022-12-05T13:50:17;94682.78;;;-0.78;56.06
74921;BME280;63483;47.384;8.860;2022-12-05T13:52:59;94683.75;;;-0.20;56.95
74921;BME280;63483;47.384;8.860;2022-12-05T13:55:37;94687.81;;;0.18;55.58
74921;BME280;63483;47.384;8.860;2022-12-05T14:00:40;94690.41;;;0.75;54.78
74921;BME280;63483;47.384;8.860;2022-12-05T14:05:41;94688.97;;;1.16;54.78
74921;BME280;63483;47.384;8.860;2022-12-05T14:15:45;94697.75;;;1.69;52.71
74921;BME280;63483;47.384;8.860;2022-12-05T14:18:37;94697.94;;;1.77;53.28
74921;BME280;63483;47.384;8.860;2022-12-05T14:21:13;94689.56;;;1.85;53.01
74921;BME280;63483;47.384;8.860;2022-12-05T14:29:07;94687.25;;;2.03;52.88
74921;BME280;63483;47.384;8.860;2022-12-05T14:31:56;94691.91;;;2.09;52.68
74921;BME280;63483;47.384;8.860;2022-12-05T14:34:26;94682.97;;;2.13;52.74
74921;BME280;63483;47.384;8.860;2022-12-05T14:39:48;94673.75;;;2.20;53.29
74921;BME280;63483;47.384;8.860;2022-12-05T14:45:03;94673.38;;;2.25;53.02
74921;BME280;63483;47.384;8.860;2022-12-05T14:47:55;94673.97;;;2.28;52.25
74921;BME280;63483;47.384;8.860;2022-12-05T15:01:31;94676.03;;;2.35;53.21
74921;BME280;63483;47.384;8.860;2022-12-05T15:06:56;94668.00;;;2.38;52.97
74921;BME280;63483;47.384;8.860;2022-12-05T15:12:24;94673.19;;;2.38;52.31
74921;BME280;63483;47.384;8.860;2022-12-05T15:15:08;94668.81;;;2.38;53.06
74921;BME280;63483;47.384;8.860;2022-12-05T15:17:46;94677.41;;;2.39;52.47
74921;BME280;63483;47.384;8.860;2022-12-05T15:22:56;94687.75;;;2.39;52.45
74921;BME280;63483;47.384;8.860;2022-12-05T15:25:24;94693.84;;;2.38;52.12
74921;BME280;63483;47.384;8.860;2022-12-05T15:28:02;94692.94;;;2.39;52.66
74921;BME280;63483;47.384;8.860;2022-12-05T15:30:29;94703.25;;;2.39;52.46
74921;BME280;63483;47.384;8.860;2022-12-05T15:32:56;94711.03;;;2.39;52.15
74921;BME280;63483;47.384;8.860;2022-12-05T15:35:24;94706.78;;;2.38;52.20
74921;BME280;63483;47.384;8.860;2022-12-05T15:40:33;94711.28;;;2.36;52.63
74921;BME280;63483;47.384;8.860;2022-12-05T15:43:35;94710.31;;;2.37;52.23
74921;BME280;63483;47.384;8.860;2022-12-05T15:46:18;94718.06;;;2.37;52.20
74921;BME280;63483;47.384;8.860;2022-12-05T15:48:45;94715.72;;;2.34;52.33
74921;BME280;63483;47.384;8.860;2022-12-05T15:51:11;94720.91;;;2.34;52.53
74921;BME280;63483;47.384;8.860;2022-12-05T15:53:43;94717.63;;;2.31;52.74
74921;BME280;63483;47.384;8.860;2022-12-05T15:56:28;94725.34;;;0.90;49.30
74921;BME280;63483;47.384;8.860;2022-12-05T16:01:39;94735.66;;;-0.74;51.90
74921;BME280;63483;47.384;8.860;2022-12-05T16:04:14;94731.34;;;-1.24;52.45
74921;BME280;63483;47.384;8.860;2022-12-05T16:06:52;94734.75;;;-1.49;53.37